createdAt,value
2023-02-25T00:01:11.940Z,98451.47
2023-02-25T00:03:40.133Z,98442.44
2023-02-25T00:06:09.911Z,98435.50
2023-02-25T00:08:37.375Z,98438.50
2023-02-25T00:11:08.207Z,98428.78
2023-02-25T00:13:36.760Z,98436.06
2023-02-25T00:16:04.627Z,98434.19
2023-02-25T00:18:32.332Z,98433.25
2023-02-25T00:21:00.120Z,98428.69
2023-02-25T00:23:28.512Z,98433.38
2023-02-25T00:25:59.513Z,98430.09
2023-02-25T00:28:29.291Z,98425.72
2023-02-25T00:30:56.819Z,98425.16
2023-02-25T00:33:24.622Z,98422.22
2023-02-25T00:35:52.405Z,98426.78
2023-02-25T00:38:19.803Z,98423.25
2023-02-25T00:40:47.170Z,98421.81
2023-02-25T00:43:14.573Z,98419.34
2023-02-25T00:45:43.248Z,98417.38
2023-02-25T00:48:10.604Z,98421.06
2023-02-25T00:50:39.652Z,98418.09
2023-02-25T00:53:07.049Z,98419.25
2023-02-25T00:55:34.455Z,98417.78
2023-02-25T00:58:02.130Z,98423.69
2023-02-25T01:00:35.835Z,98420.09
2023-02-25T01:03:09.397Z,98415.13
2023-02-25T01:05:41.623Z,98419.19
2023-02-25T01:08:09.222Z,98417.63
2023-02-25T01:10:36.589Z,98412.88
2023-02-25T01:13:04.813Z,98406.16
2023-02-25T01:15:32.189Z,98403.53
2023-02-25T01:17:59.603Z,98407.41
2023-02-25T01:20:29.878Z,98405.16
2023-02-25T01:22:57.348Z,98393.81
2023-02-25T01:25:25.608Z,98393.38
2023-02-25T01:27:55.323Z,98396.22
2023-02-25T01:30:23.263Z,98390.97
2023-02-25T01:32:50.755Z,98388.69
2023-02-25T01:35:18.334Z,98383.91
2023-02-25T01:37:47.578Z,98384.91
2023-02-25T01:40:18.642Z,98375.16
2023-02-25T01:42:47.233Z,98382.03
2023-02-25T01:45:27.829Z,98381.72
2023-02-25T01:48:00.989Z,98389.94
2023-02-25T01:50:36.496Z,98383.00
2023-02-25T01:53:05.645Z,98373.38
2023-02-25T01:55:34.186Z,98387.69
2023-02-25T01:58:02.208Z,98388.88
2023-02-25T02:00:32.292Z,98385.19
2023-02-25T02:03:00.711Z,98384.31
2023-02-25T02:05:41.441Z,98384.13
2023-02-25T02:08:10.896Z,98387.22
2023-02-25T02:10:38.325Z,98382.28
2023-02-25T02:13:06.048Z,98376.63
2023-02-25T02:15:38.883Z,98379.50
2023-02-25T02:18:08.525Z,98382.03
2023-02-25T02:20:52.318Z,98385.41
2023-02-25T02:23:40.604Z,98373.03
2023-02-25T02:26:43.269Z,98375.22
2023-02-25T02:29:25.913Z,98369.09
2023-02-25T02:32:05.709Z,98376.41
2023-02-25T02:34:44.621Z,98379.88
2023-02-25T02:37:25.824Z,98369.16
2023-02-25T02:40:06.608Z,98373.88
2023-02-25T02:42:41.337Z,98363.25
2023-02-25T02:45:14.469Z,98365.16
2023-02-25T02:47:46.467Z,98363.09
2023-02-25T02:50:22.391Z,98364.34
2023-02-25T02:52:54.050Z,98361.38
2023-02-25T02:55:25.672Z,98351.31
2023-02-25T02:57:59.221Z,98352.41
2023-02-25T03:00:31.749Z,98351.91
2023-02-25T03:03:06.579Z,98354.44
2023-02-25T03:05:37.425Z,98364.16
2023-02-25T03:08:10.016Z,98359.88
2023-02-25T03:10:38.089Z,98353.38
2023-02-25T03:13:05.542Z,98357.84
2023-02-25T03:15:34.119Z,98353.59
2023-02-25T03:18:06.951Z,98350.06
2023-02-25T03:20:40.199Z,98348.69
2023-02-25T03:23:13.378Z,98351.34
2023-02-25T03:25:47.613Z,98344.19
2023-02-25T03:28:25.467Z,98347.13
2023-02-25T03:31:01.532Z,98350.88
2023-02-25T03:33:35.639Z,98359.13
2023-02-25T03:36:08.788Z,98356.19
2023-02-25T03:38:39.374Z,98362.00
2023-02-25T03:41:08.287Z,98362.16
2023-02-25T03:43:39.762Z,98372.91
2023-02-25T03:46:08.474Z,98378.66
2023-02-25T03:48:38.790Z,98369.84
2023-02-25T03:51:07.458Z,98376.09
2023-02-25T03:53:35.895Z,98383.97
2023-02-25T03:56:08.751Z,98391.59
2023-02-25T03:58:38.399Z,98384.59
2023-02-25T04:01:09.618Z,98399.38
2023-02-25T04:03:38.453Z,98393.84
2023-02-25T04:06:06.463Z,98398.66
2023-02-25T04:08:33.747Z,98392.94
2023-02-25T04:11:01.102Z,98396.75
2023-02-25T04:13:28.488Z,98398.16
2023-02-25T04:15:55.872Z,98397.94
2023-02-25T04:18:24.763Z,98386.16
2023-02-25T04:20:53.479Z,98398.75
2023-02-25T04:23:20.834Z,98391.03
2023-02-25T04:25:48.213Z,98394.50
2023-02-25T04:28:15.580Z,98402.28
2023-02-25T04:30:43.260Z,98412.63
2023-02-25T04:33:11.229Z,98421.25
2023-02-25T04:35:39.178Z,98435.06
2023-02-25T04:38:09.208Z,98428.28
2023-02-25T04:40:36.831Z,98445.66
2023-02-25T04:43:04.216Z,98450.34
2023-02-25T04:45:31.655Z,98456.59
2023-02-25T04:47:59.064Z,98457.34
2023-02-25T04:50:26.657Z,98463.97
2023-02-25T04:52:54.112Z,98455.09
2023-02-25T04:55:22.818Z,98453.81
2023-02-25T04:57:50.187Z,98448.59
2023-02-25T05:00:20.154Z,98457.66
2023-02-25T05:02:48.769Z,98455.19
2023-02-25T05:05:17.554Z,98464.41
2023-02-25T05:07:44.921Z,98456.44
2023-02-25T05:10:14.506Z,98467.56
2023-02-25T05:12:43.336Z,98464.38
2023-02-25T05:15:12.114Z,98463.63
2023-02-25T05:17:39.698Z,98461.72
2023-02-25T05:20:12.735Z,98464.16
2023-02-25T05:22:41.061Z,98465.78
2023-02-25T05:25:10.016Z,98476.03
2023-02-25T05:27:37.566Z,98473.91
2023-02-25T05:30:07.546Z,98480.91
2023-02-25T05:32:35.120Z,98472.22
2023-02-25T05:35:02.594Z,98487.47
2023-02-25T05:37:31.899Z,98488.91
2023-02-25T05:39:59.443Z,98486.56
2023-02-25T05:42:26.802Z,98488.25
2023-02-25T05:44:54.232Z,98495.47
2023-02-25T05:47:22.924Z,98490.88
2023-02-25T05:49:50.333Z,98494.06
2023-02-25T05:52:18.061Z,98504.13
2023-02-25T05:54:45.570Z,98502.84
2023-02-25T05:57:12.935Z,98494.28
2023-02-25T05:59:40.302Z,98504.13
2023-02-25T06:02:07.798Z,98508.72
2023-02-25T06:04:36.545Z,98514.31
2023-02-25T06:07:04.264Z,98527.59
2023-02-25T06:09:32.044Z,98526.09
2023-02-25T06:11:59.425Z,98521.88
2023-02-25T06:14:27.052Z,98529.13
2023-02-25T06:16:56.725Z,98534.00
2023-02-25T06:19:26.228Z,98541.38
2023-02-25T06:21:55.186Z,98543.53
2023-02-25T06:24:22.610Z,98541.19
2023-02-25T06:26:49.999Z,98544.56
2023-02-25T06:29:17.595Z,98558.84
2023-02-25T06:31:45.127Z,98561.56
2023-02-25T06:34:12.606Z,98564.69
2023-02-25T06:36:39.975Z,98565.69
2023-02-25T06:39:08.914Z,98568.47
2023-02-25T06:41:36.267Z,98573.75
2023-02-25T06:44:04.263Z,98575.34
2023-02-25T06:46:31.644Z,98581.84
2023-02-25T06:48:59.121Z,98579.81
2023-02-25T06:51:26.519Z,98587.16
2023-02-25T06:53:53.883Z,98583.16
2023-02-25T06:56:23.202Z,98591.88
2023-02-25T06:58:52.498Z,98588.88
2023-02-25T07:01:19.963Z,98592.53
2023-02-25T07:03:47.435Z,98594.63
2023-02-25T07:06:15.829Z,98602.38
2023-02-25T07:08:43.603Z,98599.22
2023-02-25T07:11:15.006Z,98598.66
2023-02-25T07:13:44.261Z,98601.69
2023-02-25T07:16:12.064Z,98606.13
2023-02-25T07:18:39.515Z,98608.66
2023-02-25T07:21:07.567Z,98614.00
2023-02-25T07:23:35.222Z,98600.88
2023-02-25T07:26:04.209Z,98613.63
2023-02-25T07:28:31.710Z,98607.88
2023-02-25T07:31:03.029Z,98610.81
2023-02-25T07:33:31.777Z,98619.31
2023-02-25T07:35:59.372Z,98620.53
2023-02-25T07:38:26.774Z,98624.06
2023-02-25T07:40:54.259Z,98627.81
2023-02-25T07:43:22.037Z,98627.84
2023-02-25T07:45:50.387Z,98636.28
2023-02-25T07:48:19.622Z,98634.84
2023-02-25T07:50:46.992Z,98632.78
2023-02-25T07:53:14.404Z,98637.19
2023-02-25T07:55:43.538Z,98642.47
2023-02-25T07:58:11.229Z,98647.84
2023-02-25T08:00:39.496Z,98645.88
2023-02-25T08:03:06.892Z,98652.41
2023-02-25T08:05:36.026Z,98652.78
2023-02-25T08:08:03.581Z,98651.88
2023-02-25T08:10:31.078Z,98652.78
2023-02-25T08:12:58.438Z,98661.91
2023-02-25T08:15:25.806Z,98658.28
2023-02-25T08:17:55.796Z,98651.34
2023-02-25T08:20:23.255Z,98657.69
2023-02-25T08:22:52.013Z,98657.63
2023-02-25T08:25:19.429Z,98667.22
2023-02-25T08:27:46.813Z,98661.53
2023-02-25T08:30:15.132Z,98655.56
2023-02-25T08:32:42.822Z,98670.31
2023-02-25T08:35:11.246Z,98667.97
2023-02-25T08:37:38.613Z,98664.09
2023-02-25T08:40:10.191Z,98672.75
2023-02-25T08:42:37.662Z,98675.00
2023-02-25T08:45:05.963Z,98672.50
2023-02-25T08:47:33.582Z,98678.13
2023-02-25T08:50:01.219Z,98683.78
2023-02-25T08:52:33.517Z,98685.97
2023-02-25T08:55:01.746Z,98681.63
2023-02-25T08:57:31.638Z,98690.03
2023-02-25T08:59:59.037Z,98686.84
2023-02-25T09:02:26.455Z,98679.25
2023-02-25T09:04:54.089Z,98687.81
2023-02-25T09:07:22.076Z,98695.59
2023-02-25T09:09:49.360Z,98700.59
2023-02-25T09:12:16.781Z,98711.50
2023-02-25T09:14:45.497Z,98706.06
2023-02-25T09:17:12.908Z,98718.25
2023-02-25T09:19:40.525Z,98720.91
2023-02-25T09:22:09.344Z,98721.75
2023-02-25T09:24:37.605Z,98724.03
2023-02-25T09:27:07.856Z,98725.78
2023-02-25T09:29:35.538Z,98727.50
2023-02-25T09:32:05.288Z,98739.44
2023-02-25T09:34:34.074Z,98736.66
2023-02-25T09:37:01.652Z,98739.16
2023-02-25T09:39:29.021Z,98753.59
2023-02-25T09:42:00.965Z,98755.28
2023-02-25T09:44:30.721Z,98759.31
2023-02-25T09:47:03.491Z,98760.50
2023-02-25T09:49:37.553Z,98760.50
2023-02-25T09:52:12.381Z,98765.81
2023-02-25T09:54:46.380Z,98771.03
2023-02-25T09:57:18.977Z,98774.28
2023-02-25T09:59:47.349Z,98784.66
2023-02-25T10:02:27.779Z,98788.06
2023-02-25T10:05:14.352Z,98795.25
2023-02-25T10:07:50.705Z,98792.72
2023-02-25T10:10:22.761Z,98791.16
2023-02-25T10:12:57.541Z,98798.00
2023-02-25T10:15:52.395Z,98800.53
2023-02-25T10:18:39.002Z,98807.38
2023-02-25T10:21:18.600Z,98808.97
2023-02-25T10:24:03.062Z,98816.84
2023-02-25T10:26:34.434Z,98821.09
2023-02-25T10:29:07.106Z,98832.25
2023-02-25T10:31:36.405Z,98828.66
2023-02-25T10:34:20.696Z,98827.72
2023-02-25T10:36:54.458Z,98826.78
2023-02-25T10:39:22.088Z,98833.13
2023-02-25T10:41:50.192Z,98845.78
2023-02-25T10:44:18.043Z,98845.78
2023-02-25T10:46:52.055Z,98840.31
2023-02-25T10:49:22.917Z,98850.22
2023-02-25T10:52:03.923Z,98849.56
2023-02-25T10:54:33.780Z,98855.25
2023-02-25T10:57:03.161Z,98859.97
2023-02-25T10:59:37.048Z,98858.09
2023-02-25T11:02:18.796Z,98861.28
2023-02-25T11:04:46.887Z,98872.44
2023-02-25T11:07:25.772Z,98866.97
2023-02-25T11:10:09.218Z,98867.53
2023-02-25T11:12:42.046Z,98867.44
2023-02-25T11:15:43.244Z,98880.44
2023-02-25T11:18:20.682Z,98883.84
2023-02-25T11:20:51.424Z,98880.13
2023-02-25T11:23:24.872Z,98877.00
2023-02-25T11:25:53.857Z,98872.25
2023-02-25T11:28:29.239Z,98881.38
2023-02-25T11:31:06.544Z,98870.84
2023-02-25T11:33:37.207Z,98866.31
2023-02-25T11:36:05.660Z,98879.00
2023-02-25T11:38:37.020Z,98883.91
2023-02-25T11:41:05.555Z,98881.75
2023-02-25T11:43:37.104Z,98884.88
2023-02-25T11:46:11.393Z,98877.75
2023-02-25T11:48:47.290Z,98880.81
2023-02-25T11:51:25.483Z,98890.06
2023-02-25T11:54:19.056Z,98892.25
2023-02-25T11:56:51.217Z,98893.94
2023-02-25T11:59:37.043Z,98894.78
2023-02-25T12:02:25.134Z,98890.53
2023-02-25T12:05:06.658Z,98891.97
2023-02-25T12:08:10.352Z,98898.28
2023-02-25T12:11:13.338Z,98904.81
2023-02-25T12:14:34.360Z,98907.09
2023-02-25T12:17:26.650Z,98913.91
2023-02-25T12:20:29.987Z,98908.22
2023-02-25T12:23:39.476Z,98917.41
2023-02-25T12:26:14.523Z,98920.13
2023-02-25T12:29:00.484Z,98928.34
2023-02-25T12:32:02.217Z,98926.38
2023-02-25T12:35:07.222Z,98932.72
2023-02-25T12:37:55.446Z,98927.91
2023-02-25T12:40:37.195Z,98933.28
2023-02-25T12:43:19.737Z,98928.88
2023-02-25T12:46:06.329Z,98936.34
2023-02-25T12:48:50.032Z,98938.34
2023-02-25T12:51:32.369Z,98930.66
2023-02-25T12:54:10.282Z,98935.84
2023-02-25T12:56:53.238Z,98942.88
2023-02-25T12:59:55.128Z,98947.03
2023-02-25T13:02:43.322Z,98939.94
2023-02-25T13:05:26.867Z,98940.59
2023-02-25T13:08:08.470Z,98950.34
2023-02-25T13:10:46.000Z,98949.09
2023-02-25T13:13:47.093Z,98949.50
2023-02-25T13:16:28.020Z,98956.50
2023-02-25T13:19:15.681Z,98968.22
2023-02-25T13:21:46.509Z,98973.78
2023-02-25T13:24:27.397Z,98971.53
2023-02-25T13:27:14.621Z,98970.44
2023-02-25T13:30:12.241Z,98976.50
2023-02-25T13:32:49.652Z,98968.00
2023-02-25T13:35:28.843Z,98975.53
2023-02-25T13:38:12.082Z,98974.38
2023-02-25T13:40:51.311Z,98973.81
2023-02-25T13:43:33.964Z,98977.69
2023-02-25T13:46:20.958Z,98990.00
2023-02-25T13:49:06.064Z,98987.31
2023-02-25T13:52:04.826Z,98985.50
2023-02-25T13:54:53.399Z,98991.84
2023-02-25T13:57:34.746Z,98995.19
2023-02-25T14:00:22.051Z,99007.53
2023-02-25T14:03:10.552Z,99006.38
2023-02-25T14:05:57.362Z,99009.06
2023-02-25T14:08:48.523Z,99009.34
2023-02-25T14:11:34.682Z,99014.44
2023-02-25T14:14:19.274Z,99013.72
2023-02-25T14:17:03.800Z,99010.31
2023-02-25T14:19:41.082Z,99019.31
2023-02-25T14:22:28.351Z,99021.47
2023-02-25T14:25:07.989Z,99023.09
2023-02-25T14:27:43.168Z,99029.94
2023-02-25T14:30:21.488Z,99032.84
2023-02-25T14:33:02.241Z,99034.72
2023-02-25T14:35:52.971Z,99079.59
2023-02-25T14:38:30.194Z,99071.59
2023-02-25T14:41:10.265Z,99074.03
2023-02-25T14:43:38.521Z,99073.72
2023-02-25T14:46:16.456Z,99074.63
2023-02-25T14:48:50.385Z,99080.69
2023-02-25T14:51:54.253Z,99083.16
2023-02-25T14:54:45.035Z,99084.53
2023-02-25T14:57:31.539Z,99089.81
2023-02-25T15:00:15.646Z,99092.56
2023-02-25T15:03:11.035Z,99091.72
2023-02-25T15:05:49.927Z,99088.31
2023-02-25T15:08:48.288Z,99098.38
2023-02-25T15:11:38.220Z,99098.38
2023-02-25T15:14:26.448Z,99104.53
2023-02-25T15:17:21.637Z,99105.66
2023-02-25T15:20:25.234Z,99108.94
2023-02-25T15:23:06.888Z,99116.63
2023-02-25T15:25:44.857Z,99109.19
2023-02-25T15:28:36.860Z,99114.63
2023-02-25T15:31:34.058Z,99119.22
2023-02-25T15:34:44.345Z,99127.03
2023-02-25T15:37:31.169Z,99125.41
2023-02-25T15:40:00.289Z,99132.41
2023-02-25T15:42:45.653Z,99133.00
2023-02-25T15:45:43.402Z,99139.84
2023-02-25T15:48:31.699Z,99159.38
2023-02-25T15:51:01.022Z,99169.47
2023-02-25T15:53:42.088Z,99173.28
2023-02-25T15:56:45.374Z,99175.22
2023-02-25T15:59:43.341Z,99183.63
2023-02-25T16:02:35.153Z,99179.97
2023-02-25T16:05:05.638Z,99187.00
2023-02-25T16:07:35.741Z,99186.59
2023-02-25T16:10:07.883Z,99195.28
2023-02-25T16:12:35.889Z,99200.94
2023-02-25T16:15:03.671Z,99200.81
2023-02-25T16:17:33.790Z,99212.72
2023-02-25T16:20:12.433Z,99209.22
2023-02-25T16:22:45.291Z,99228.34
2023-02-25T16:25:17.288Z,99225.31
2023-02-25T16:27:55.276Z,99230.28
2023-02-25T16:30:24.677Z,99233.19
2023-02-25T16:33:01.075Z,99240.00
2023-02-25T16:35:36.684Z,99250.03
2023-02-25T16:38:13.317Z,99250.69
2023-02-25T16:40:43.075Z,99253.06
2023-02-25T16:43:14.073Z,99262.06
2023-02-25T16:45:45.381Z,99260.66
2023-02-25T16:48:18.409Z,99267.88
2023-02-25T16:50:49.015Z,99277.97
2023-02-25T16:53:19.456Z,99276.84
2023-02-25T16:55:48.235Z,99281.69
2023-02-25T16:58:26.267Z,99285.31
2023-02-25T17:00:56.260Z,99292.03
2023-02-25T17:03:26.013Z,99295.88
2023-02-25T17:06:04.116Z,99305.22
2023-02-25T17:08:31.656Z,99304.09
2023-02-25T17:11:01.973Z,99310.59
2023-02-25T17:13:32.917Z,99324.59
2023-02-25T17:16:03.742Z,99329.81
2023-02-25T17:18:35.641Z,99331.94
2023-02-25T17:21:09.176Z,99340.81
2023-02-25T17:23:41.076Z,99338.59
2023-02-25T17:26:12.552Z,99338.66
2023-02-25T17:28:40.560Z,99346.88
2023-02-25T17:31:09.658Z,99349.78
2023-02-25T17:33:48.098Z,99350.00
2023-02-25T17:36:20.339Z,99362.84
2023-02-25T17:38:51.022Z,99360.91
2023-02-25T17:41:19.875Z,99370.78
2023-02-25T17:43:47.697Z,99368.44
2023-02-25T17:46:21.305Z,99370.56
2023-02-25T17:48:53.150Z,99370.34
2023-02-25T17:51:31.212Z,99376.56
2023-02-25T17:54:04.202Z,99391.47
2023-02-25T17:56:34.432Z,99389.69
2023-02-25T17:59:09.268Z,99386.84
2023-02-25T18:01:47.871Z,99396.91
2023-02-25T18:04:24.552Z,99400.44
2023-02-25T18:06:55.388Z,99395.38
2023-02-25T18:09:39.179Z,99398.59
2023-02-25T18:12:09.458Z,99399.84
2023-02-25T18:14:39.516Z,99397.47
2023-02-25T18:17:21.186Z,99403.31
2023-02-25T18:19:49.212Z,99405.31
2023-02-25T18:22:30.272Z,99406.78
2023-02-25T18:25:00.147Z,99413.44
2023-02-25T18:27:30.648Z,99419.38
2023-02-25T18:30:02.538Z,99422.16
2023-02-25T18:32:30.152Z,99419.13
2023-02-25T18:34:57.947Z,99421.44
2023-02-25T18:37:26.582Z,99422.16
2023-02-25T18:39:55.295Z,99426.00
2023-02-25T18:42:22.690Z,99429.53
2023-02-25T18:44:50.230Z,99429.75
2023-02-25T18:47:18.149Z,99441.03
2023-02-25T18:49:45.881Z,99430.00
2023-02-25T18:52:21.624Z,99434.16
2023-02-25T18:54:49.447Z,99436.38
2023-02-25T18:57:24.969Z,99446.13
2023-02-25T18:59:53.000Z,99446.19
2023-02-25T19:02:45.047Z,99445.88
2023-02-25T19:05:12.847Z,99446.97
2023-02-25T19:07:40.405Z,99458.06
2023-02-25T19:10:12.726Z,99459.97
2023-02-25T19:12:41.802Z,99454.38
2023-02-25T19:15:16.005Z,99468.50
2023-02-25T19:17:44.000Z,99465.06
2023-02-25T19:20:12.118Z,99467.84
2023-02-25T19:22:44.202Z,99473.59
2023-02-25T19:25:19.990Z,99474.31
2023-02-25T19:27:49.465Z,99476.41
2023-02-25T19:30:19.473Z,99483.34
2023-02-25T19:32:46.972Z,99490.03
2023-02-25T19:35:15.041Z,99486.59
2023-02-25T19:37:42.757Z,99486.53
2023-02-25T19:40:13.106Z,99493.50
2023-02-25T19:42:42.141Z,99494.91
2023-02-25T19:45:14.157Z,99507.31
2023-02-25T19:47:41.833Z,99503.13
2023-02-25T19:50:11.518Z,99511.41
2023-02-25T19:52:39.668Z,99517.41
2023-02-25T19:55:08.191Z,99515.03
2023-02-25T19:57:35.754Z,99529.56
2023-02-25T20:00:03.679Z,99525.06
2023-02-25T20:02:32.376Z,99529.97
2023-02-25T20:04:59.814Z,99525.41
2023-02-25T20:07:27.350Z,99535.97
2023-02-25T20:09:54.929Z,99533.50
2023-02-25T20:12:22.508Z,99534.66
2023-02-25T20:14:50.088Z,99543.81
2023-02-25T20:17:17.628Z,99543.94
2023-02-25T20:19:47.660Z,99553.75
2023-02-25T20:22:15.167Z,99557.06
2023-02-25T20:24:42.687Z,99562.59
2023-02-25T20:27:10.244Z,99567.19
2023-02-25T20:29:37.666Z,99566.91
2023-02-25T20:32:05.340Z,99565.53
2023-02-25T20:34:33.204Z,99572.22
2023-02-25T20:37:05.289Z,99574.88
2023-02-25T20:39:48.042Z,99576.84
2023-02-25T20:42:20.033Z,99586.88
2023-02-25T20:44:50.345Z,99582.41
2023-02-25T20:47:21.777Z,99586.56
2023-02-25T20:49:50.036Z,99584.53
2023-02-25T20:52:20.052Z,99599.56
2023-02-25T20:54:49.727Z,99588.50
2023-02-25T20:57:19.281Z,99598.19
2023-02-25T20:59:48.240Z,99599.78
2023-02-25T21:02:16.723Z,99599.03
2023-02-25T21:04:45.333Z,99608.81
2023-02-25T21:07:14.059Z,99607.47
2023-02-25T21:09:43.605Z,99613.78
2023-02-25T21:12:11.775Z,99613.66
2023-02-25T21:14:39.498Z,99616.47
2023-02-25T21:17:09.598Z,99625.44
2023-02-25T21:19:38.688Z,99630.34
2023-02-25T21:22:06.992Z,99629.88
2023-02-25T21:24:34.884Z,99630.22
2023-02-25T21:27:04.216Z,99635.28
2023-02-25T21:29:32.474Z,99635.00
2023-02-25T21:32:00.012Z,99644.22
2023-02-25T21:34:27.937Z,99644.34
2023-02-25T21:36:59.143Z,99648.03
2023-02-25T21:39:26.865Z,99643.72
2023-02-25T21:41:54.416Z,99654.09
2023-02-25T21:44:23.371Z,99659.47
2023-02-25T21:46:50.834Z,99658.06
2023-02-25T21:49:18.472Z,99657.41
2023-02-25T21:51:47.760Z,99654.56
2023-02-25T21:54:15.448Z,99656.31
2023-02-25T21:56:43.582Z,99661.94
2023-02-25T21:59:11.168Z,99668.78
2023-02-25T22:01:42.300Z,99662.38
2023-02-25T22:04:11.102Z,99666.00
2023-02-25T22:06:38.878Z,99666.34
2023-02-25T22:09:07.518Z,99665.53
2023-02-25T22:11:37.420Z,99668.78
2023-02-25T22:14:07.310Z,99674.31
2023-02-25T22:16:35.528Z,99677.25
2023-02-25T22:19:05.416Z,99675.44
2023-02-25T22:21:35.433Z,99677.25
2023-02-25T22:24:04.444Z,99683.34
2023-02-25T22:26:33.760Z,99675.75
2023-02-25T22:29:04.450Z,99679.06
2023-02-25T22:31:34.137Z,99672.44
2023-02-25T22:34:02.497Z,99680.84
2023-02-25T22:36:31.534Z,99679.22
2023-02-25T22:38:58.986Z,99683.13
2023-02-25T22:41:28.700Z,99687.38
2023-02-25T22:43:57.747Z,99686.28
2023-02-25T22:46:28.522Z,99685.56
2023-02-25T22:48:56.794Z,99686.16
2023-02-25T22:51:27.056Z,99689.72
2023-02-25T22:53:56.721Z,99697.69
2023-02-25T22:56:25.570Z,99700.00
2023-02-25T22:58:53.689Z,99701.53
2023-02-25T23:01:22.507Z,99711.31
2023-02-25T23:03:51.091Z,99717.88
2023-02-25T23:06:22.177Z,99715.88
2023-02-25T23:08:51.894Z,99714.19
2023-02-25T23:11:23.215Z,99719.81
2023-02-25T23:13:53.834Z,99730.13
2023-02-25T23:16:23.889Z,99729.00
2023-02-25T23:18:53.241Z,99728.84
2023-02-25T23:21:22.063Z,99735.59
2023-02-25T23:23:50.994Z,99734.84
2023-02-25T23:26:23.675Z,99737.44
2023-02-25T23:28:55.133Z,99750.53
2023-02-25T23:31:24.206Z,99750.31
2023-02-25T23:33:55.512Z,99748.66
2023-02-25T23:36:23.658Z,99754.31
2023-02-25T23:38:54.043Z,99749.16
2023-02-25T23:41:23.472Z,99748.53
2023-02-25T23:43:52.986Z,99753.94
2023-02-25T23:46:20.875Z,99753.78
2023-02-25T23:48:48.721Z,99756.41
2023-02-25T23:51:16.250Z,99758.09
2023-02-25T23:53:43.895Z,99771.28
2023-02-25T23:56:13.367Z,99765.69
2023-02-25T23:58:42.228Z,99760.38
